createdAt,value
2023-10-12T00:00:02.962Z,6.30
2023-10-12T00:03:45.817Z,6.20
2023-10-12T00:06:48.508Z,6.00
2023-10-12T00:10:11.145Z,5.70
2023-10-12T00:13:42.285Z,5.90
2023-10-12T00:17:10.657Z,6.10
2023-10-12T00:20:43.052Z,5.80
2023-10-12T00:23:57.159Z,6.00
2023-10-12T00:27:39.269Z,6.10
2023-10-12T00:30:59.724Z,5.90
2023-10-12T00:34:09.795Z,5.60
2023-10-12T00:37:51.686Z,5.70
2023-10-12T00:41:25.870Z,6.10
2023-10-12T00:44:48.766Z,6.80
2023-10-12T00:48:38.189Z,5.70
2023-10-12T00:52:35.736Z,5.50
2023-10-12T00:56:18.191Z,5.80
2023-10-12T00:59:59.352Z,6.40
2023-10-12T01:03:28.758Z,5.90
2023-10-12T01:07:02.923Z,5.60
2023-10-12T01:10:28.155Z,5.60
2023-10-12T01:14:20.466Z,5.80
2023-10-12T01:17:45.453Z,6.10
2023-10-12T01:21:04.107Z,5.80
2023-10-12T01:24:18.097Z,5.70
2023-10-12T01:27:29.459Z,5.60
2023-10-12T01:31:04.093Z,5.70
2023-10-12T01:34:24.746Z,5.90
2023-10-12T01:38:14.505Z,5.60
2023-10-12T01:42:03.704Z,6.10
2023-10-12T01:45:53.717Z,5.90
2023-10-12T01:49:20.438Z,6.10
2023-10-12T01:53:01.687Z,5.70
2023-10-12T01:56:42.302Z,5.20
2023-10-12T02:00:31.745Z,6.40
2023-10-12T02:04:21.400Z,6.00
2023-10-12T02:07:57.619Z,6.10
2023-10-12T02:11:39.835Z,6.20
2023-10-12T02:15:30.672Z,6.30
2023-10-12T02:19:22.548Z,6.20
2023-10-12T02:23:12.637Z,5.80
2023-10-12T02:27:11.234Z,5.50
2023-10-12T02:31:01.182Z,6.00
2023-10-12T02:35:11.153Z,5.70
2023-10-12T02:39:02.020Z,6.10
2023-10-12T02:43:00.535Z,6.50
2023-10-12T02:47:21.857Z,5.80
2023-10-12T02:51:21.323Z,5.60
2023-10-12T02:55:11.281Z,5.70
2023-10-12T02:59:03.321Z,5.70
2023-10-12T03:02:57.408Z,5.70
2023-10-12T03:06:51.188Z,6.40
2023-10-12T03:10:52.669Z,5.80
2023-10-12T03:14:34.293Z,5.90
2023-10-12T03:18:23.980Z,6.10
2023-10-12T03:22:14.426Z,6.20
2023-10-12T03:26:08.903Z,6.00
2023-10-12T03:29:58.471Z,6.10
2023-10-12T03:33:51.856Z,5.60
2023-10-12T03:37:44.011Z,5.70
2023-10-12T03:41:44.587Z,5.70
2023-10-12T03:45:50.334Z,6.10
2023-10-12T03:53:25.502Z,5.60
2023-10-12T03:57:15.909Z,5.90
2023-10-12T04:01:11.220Z,6.40
2023-10-12T04:04:45.059Z,5.80
2023-10-12T04:08:49.108Z,6.10
2023-10-12T04:12:39.735Z,5.60
2023-10-12T04:16:41.862Z,5.80
2023-10-12T04:20:51.565Z,5.90
2023-10-12T04:25:04.912Z,6.00
2023-10-12T04:29:19.972Z,5.90
2023-10-12T04:33:13.435Z,6.10
2023-10-12T04:37:05.640Z,6.20
2023-10-12T04:40:58.977Z,6.20
2023-10-12T04:44:51.605Z,5.70
2023-10-12T04:48:43.724Z,6.10
2023-10-12T04:52:35.654Z,6.70
2023-10-12T04:56:09.119Z,6.90
2023-10-12T05:00:03.928Z,7.10
2023-10-12T05:03:54.796Z,6.40
2023-10-12T05:07:48.297Z,6.20
2023-10-12T05:11:39.092Z,6.20
2023-10-12T05:15:29.996Z,6.50
2023-10-12T05:19:20.615Z,6.70
2023-10-12T05:23:12.697Z,6.50
2023-10-12T05:27:02.806Z,6.10
2023-10-12T05:31:00.548Z,6.70
2023-10-12T05:35:00.273Z,6.50
2023-10-12T05:38:58.407Z,6.20
2023-10-12T05:42:48.501Z,6.00
2023-10-12T05:46:55.600Z,6.50
2023-10-12T05:50:45.848Z,6.70
2023-10-12T05:54:41.752Z,5.80
2023-10-12T05:58:31.480Z,6.90
2023-10-12T06:02:24.269Z,6.20
2023-10-12T06:06:14.575Z,6.30
2023-10-12T06:10:05.629Z,6.80
2023-10-12T06:14:02.705Z,7.20
2023-10-12T06:17:53.559Z,7.10
2023-10-12T06:21:45.614Z,7.30
2023-10-12T06:26:05.914Z,7.60
2023-10-12T06:29:47.244Z,6.90
2023-10-12T06:33:37.777Z,7.20
2023-10-12T06:37:29.678Z,7.50
2023-10-12T06:42:01.568Z,8.40
2023-10-12T06:46:31.189Z,8.10
2023-10-12T06:50:52.178Z,7.40
2023-10-12T06:55:00.329Z,7.90
2023-10-12T06:59:42.257Z,8.60
2023-10-12T07:14:34.742Z,7.50
2023-10-12T07:18:28.096Z,8.90
2023-10-12T07:22:15.909Z,8.10
2023-10-12T07:25:44.986Z,8.60
2023-10-12T07:28:54.531Z,8.70
2023-10-12T07:32:18.416Z,8.40
2023-10-12T07:36:09.554Z,7.60
2023-10-12T07:40:00.757Z,10.20
2023-10-12T07:43:46.864Z,8.90
2023-10-12T07:47:25.377Z,8.80
2023-10-12T07:50:56.517Z,8.60
2023-10-12T07:54:46.893Z,7.50
2023-10-12T07:58:26.192Z,7.80
2023-10-12T08:02:09.571Z,7.70
2023-10-12T08:05:46.325Z,8.10
2023-10-12T08:09:45.763Z,7.40
2023-10-12T08:13:38.800Z,8.30
2023-10-12T08:17:23.625Z,8.40
2023-10-12T08:20:58.404Z,7.20
2023-10-12T08:24:42.083Z,7.80
2023-10-12T08:28:30.204Z,7.90
2023-10-12T08:32:07.977Z,8.10
2023-10-12T08:35:54.090Z,7.40
2023-10-12T08:39:47.189Z,8.00
2023-10-12T08:43:09.820Z,8.80
2023-10-12T08:47:15.949Z,8.50
2023-10-12T08:50:21.955Z,8.20
2023-10-12T08:54:09.981Z,8.80
2023-10-12T08:58:06.878Z,8.80
2023-10-12T09:01:44.199Z,8.00
2023-10-12T09:05:06.039Z,8.40
2023-10-12T09:09:18.605Z,8.90
2023-10-12T09:12:40.428Z,8.70
2023-10-12T09:16:30.122Z,9.10
2023-10-12T09:20:11.884Z,8.40
2023-10-12T09:23:41.670Z,9.00
2023-10-12T09:27:24.985Z,8.80
2023-10-12T09:31:15.512Z,8.10
2023-10-12T09:34:53.619Z,8.50
2023-10-12T09:38:25.713Z,9.20
2023-10-12T09:42:17.724Z,7.80
2023-10-12T09:45:40.705Z,8.90
2023-10-12T09:49:28.908Z,9.40
2023-10-12T09:53:09.510Z,9.10
2023-10-12T09:56:59.600Z,9.60
2023-10-12T10:00:31.520Z,9.70
2023-10-12T10:04:21.601Z,9.00
2023-10-12T10:08:13.605Z,10.00
2023-10-12T10:11:54.186Z,9.40
2023-10-12T10:15:36.372Z,9.70
2023-10-12T10:19:27.948Z,10.20
2023-10-12T10:22:42.845Z,9.90
2023-10-12T10:26:41.341Z,9.70
2023-10-12T10:31:00.148Z,10.10
2023-10-12T10:34:48.174Z,9.60
2023-10-12T10:38:40.330Z,7.90
2023-10-12T10:42:23.736Z,4.60
2023-10-12T10:46:18.218Z,1.90
2023-10-12T10:50:06.109Z,2.50
2023-10-12T10:53:57.069Z,1.90
2023-10-12T10:57:35.904Z,1.60
2023-10-12T11:01:07.625Z,1.70
2023-10-12T11:04:55.180Z,1.60
2023-10-12T11:08:48.095Z,1.20
2023-10-12T11:12:39.037Z,1.30
2023-10-12T11:15:56.374Z,1.40
2023-10-12T11:19:32.805Z,1.20
2023-10-12T11:23:21.949Z,1.30
2023-10-12T11:26:39.721Z,1.70
2023-10-12T11:30:29.255Z,1.60
2023-10-12T11:34:08.935Z,1.30
2023-10-12T11:37:51.499Z,1.70
2023-10-12T11:41:41.931Z,1.60
2023-10-12T11:45:36.311Z,2.00
2023-10-12T11:49:24.568Z,2.00
2023-10-12T11:53:12.836Z,2.70
2023-10-12T11:57:01.211Z,1.90
2023-10-12T12:00:29.317Z,2.10
2023-10-12T12:04:18.251Z,2.30
2023-10-12T12:07:48.796Z,2.20
2023-10-12T12:11:20.779Z,2.50
2023-10-12T12:14:54.234Z,2.30
2023-10-12T12:18:42.305Z,2.60
2023-10-12T12:22:36.778Z,2.40
2023-10-12T12:26:26.340Z,2.10
2023-10-12T12:34:02.395Z,2.20
2023-10-12T12:37:51.545Z,2.10
2023-10-12T12:41:39.545Z,2.20
2023-10-12T12:45:27.969Z,2.00
2023-10-12T12:49:16.005Z,2.00
2023-10-12T12:53:07.055Z,2.40
2023-10-12T12:56:36.140Z,1.90
2023-10-12T13:00:26.186Z,2.10
2023-10-12T13:04:13.809Z,2.30
2023-10-12T13:07:55.583Z,3.20
2023-10-12T13:11:37.169Z,2.60
2023-10-12T13:15:21.407Z,2.90
2023-10-12T13:19:09.629Z,2.80
2023-10-12T13:22:43.774Z,3.30
2023-10-12T13:26:16.933Z,4.10
2023-10-12T13:29:58.836Z,3.70
2023-10-12T13:33:46.807Z,3.40
2023-10-12T13:37:27.063Z,3.10
2023-10-12T13:41:17.201Z,3.20
2023-10-12T13:45:03.699Z,2.90
2023-10-12T13:48:51.573Z,2.80
2023-10-12T13:52:41.164Z,3.20
2023-10-12T13:56:28.841Z,2.80
2023-10-12T14:00:17.518Z,3.00
2023-10-12T14:04:00.547Z,2.70
2023-10-12T14:07:19.055Z,2.70
2023-10-12T14:11:07.418Z,2.40
2023-10-12T14:14:55.422Z,2.30
2023-10-12T14:18:43.125Z,2.50
2023-10-12T14:22:22.674Z,2.40
2023-10-12T14:26:10.755Z,2.00
2023-10-12T14:29:59.576Z,2.00
2023-10-12T14:33:51.519Z,2.30
2023-10-12T14:37:41.326Z,2.50
2023-10-12T14:41:28.345Z,2.50
2023-10-12T14:45:07.946Z,2.60
2023-10-12T14:48:56.206Z,2.60
2023-10-12T14:52:36.381Z,3.10
2023-10-12T14:56:25.433Z,2.40
2023-10-12T15:00:14.583Z,3.10
2023-10-12T15:04:03.771Z,3.80
2023-10-12T15:07:52.409Z,3.70
2023-10-12T15:11:42.026Z,3.20
2023-10-12T15:15:10.963Z,3.40
2023-10-12T15:19:05.147Z,3.20
2023-10-12T15:22:53.155Z,3.50
2023-10-12T15:26:38.388Z,3.10
2023-10-12T15:30:26.324Z,3.10
2023-10-12T15:34:15.806Z,3.60
2023-10-12T15:37:43.600Z,2.60
2023-10-12T15:41:15.564Z,3.00
2023-10-12T15:45:03.991Z,3.10
2023-10-12T15:48:52.050Z,3.30
2023-10-12T15:52:40.292Z,2.70
2023-10-12T15:56:28.351Z,3.00
2023-10-12T16:00:10.885Z,2.70
2023-10-12T16:04:03.634Z,3.00
2023-10-12T16:07:35.899Z,3.20
2023-10-12T16:11:26.286Z,2.70
2023-10-12T16:15:04.606Z,2.80
2023-10-12T16:18:46.479Z,2.90
2023-10-12T16:22:36.181Z,3.40
2023-10-12T16:26:10.192Z,4.30
2023-10-12T16:30:00.469Z,5.20
2023-10-12T16:33:48.637Z,5.60
2023-10-12T16:37:30.971Z,4.90
2023-10-12T16:41:19.344Z,5.00
2023-10-12T16:45:08.007Z,4.30
2023-10-12T16:48:57.246Z,4.20
2023-10-12T16:52:46.010Z,3.60
2023-10-12T16:56:28.610Z,4.20
2023-10-12T17:00:17.771Z,4.10
2023-10-12T17:03:58.513Z,4.50
2023-10-12T17:07:47.306Z,3.50
2023-10-12T17:11:25.577Z,4.50
2023-10-12T17:15:14.928Z,3.50
2023-10-12T17:19:03.332Z,3.80
2023-10-12T17:23:15.582Z,3.90
2023-10-12T17:27:04.300Z,3.80
2023-10-12T17:30:52.933Z,3.90
2023-10-12T17:34:42.633Z,3.60
2023-10-12T17:38:30.973Z,3.80
2023-10-12T17:41:44.739Z,3.90
2023-10-12T17:45:33.286Z,3.60
2023-10-12T17:49:21.335Z,3.40
2023-10-12T17:53:09.718Z,3.60
2023-10-12T17:56:58.149Z,3.50
2023-10-12T18:00:46.970Z,3.40
2023-10-12T18:04:35.025Z,3.50
2023-10-12T18:08:10.728Z,3.40
2023-10-12T18:12:01.574Z,3.10
2023-10-12T18:15:42.941Z,3.50
2023-10-12T18:19:30.909Z,2.70
2023-10-12T18:23:11.041Z,4.00
2023-10-12T18:26:35.289Z,3.50
2023-10-12T18:30:17.406Z,3.40
2023-10-12T18:34:17.315Z,3.30
2023-10-12T18:37:36.832Z,3.30
2023-10-12T18:41:13.605Z,3.00
2023-10-12T18:44:40.308Z,4.40
2023-10-12T18:47:38.011Z,4.20
2023-10-12T18:50:55.968Z,3.50
2023-10-12T18:54:43.627Z,3.40
2023-10-12T18:58:01.242Z,6.20
2023-10-12T19:01:34.570Z,9.40
2023-10-12T19:05:18.376Z,8.90
2023-10-12T19:08:28.699Z,4.40
2023-10-12T19:11:41.937Z,4.00
2023-10-12T19:14:49.369Z,5.00
2023-10-12T19:18:23.578Z,6.80
2023-10-12T19:21:18.751Z,5.20
2023-10-12T19:24:42.648Z,5.20
2023-10-12T19:28:18.129Z,9.70
2023-10-12T19:32:06.163Z,11.80
2023-10-12T19:35:22.336Z,11.00
2023-10-12T19:38:42.979Z,10.60
2023-10-12T19:42:00.596Z,10.90
2023-10-12T19:45:19.604Z,10.10
2023-10-12T19:48:50.043Z,7.20
2023-10-12T19:52:38.109Z,12.30
2023-10-12T19:56:06.205Z,10.30
2023-10-12T19:58:59.729Z,20.20
2023-10-12T20:02:28.866Z,15.70
2023-10-12T20:06:09.229Z,23.00
2023-10-12T20:09:49.407Z,15.60
2023-10-12T20:13:42.742Z,21.40
2023-10-12T20:17:29.811Z,23.10
2023-10-12T20:21:24.203Z,19.80
2023-10-12T20:25:27.300Z,20.60
2023-10-12T20:29:04.555Z,20.10
2023-10-12T20:32:53.028Z,18.10
2023-10-12T20:36:41.746Z,23.50
2023-10-12T20:40:01.398Z,20.20
2023-10-12T20:43:27.035Z,21.70
2023-10-12T20:47:14.847Z,24.50
2023-10-12T20:51:03.525Z,23.50
2023-10-12T20:54:51.577Z,22.60
2023-10-12T20:58:13.595Z,23.90
2023-10-12T21:05:35.080Z,19.10
2023-10-12T21:09:22.983Z,19.90
2023-10-12T21:13:04.123Z,18.50
2023-10-12T21:16:52.653Z,20.70
2023-10-12T21:20:34.624Z,18.00
2023-10-12T21:24:28.513Z,20.20
2023-10-12T21:28:17.454Z,24.10
2023-10-12T21:32:10.074Z,30.70
2023-10-12T21:35:27.009Z,27.80
2023-10-12T21:39:03.457Z,26.30
2023-10-12T21:42:38.746Z,26.00
2023-10-12T21:46:10.540Z,25.20
2023-10-12T21:49:35.027Z,26.50
2023-10-12T21:53:13.072Z,23.50
2023-10-12T21:56:57.740Z,24.70
2023-10-12T22:00:27.852Z,22.70
2023-10-12T22:04:13.659Z,24.20
2023-10-12T22:07:48.197Z,19.80
2023-10-12T22:11:26.201Z,20.50
2023-10-12T22:15:23.399Z,22.20
2023-10-12T22:18:46.913Z,22.00
2023-10-12T22:22:20.012Z,22.20
2023-10-12T22:25:38.377Z,20.40
2023-10-12T22:29:30.333Z,20.40
2023-10-12T22:32:58.689Z,23.90
2023-10-12T22:36:47.397Z,26.10
2023-10-12T22:40:31.048Z,21.30
2023-10-12T22:44:19.404Z,22.00
2023-10-12T22:47:44.636Z,24.40
2023-10-12T22:51:32.752Z,22.90
2023-10-12T22:55:20.870Z,28.20
2023-10-12T22:59:01.093Z,26.10
2023-10-12T23:02:43.069Z,19.90
2023-10-12T23:06:13.920Z,20.50
2023-10-12T23:10:01.522Z,23.00
2023-10-12T23:13:47.593Z,23.90
2023-10-12T23:17:35.710Z,24.60
2023-10-12T23:21:24.362Z,24.50
2023-10-12T23:25:02.729Z,22.00
2023-10-12T23:28:51.059Z,27.40
2023-10-12T23:36:50.801Z,25.70
2023-10-12T23:39:29.745Z,28.00
2023-10-12T23:42:08.768Z,27.90
2023-10-12T23:45:08.553Z,29.80
2023-10-12T23:47:40.307Z,30.00
2023-10-12T23:51:02.817Z,28.50
2023-10-12T23:53:56.181Z,27.90
2023-10-12T23:57:12.166Z,29.60
2023-10-12T23:59:45.968Z,29.40
